FQVL

Details ICAO FQVL (VNX)
Name VILANKULO
Region Mozambique
Timezone Africa/Maputo (UTC+2.0)
Plans Departing 1
Arriving 0
Stats Elevation 46 ft / 14 m (AMSL)
Location -22.017786° 35.313465°
Runways 2
Magnetic Variation 15.343° W
Sunrise 2017-12-15 02:51:12 UTC / 2017-12-15 04:51:12 Local
Sunset 2017-12-15 16:19:17 UTC / 2017-12-15 18:19:17 Local
Advertisement - Login to hide

Runways

ID Width Length Bearing (true) Bearing (mag) Surface Threshold Offset Overrun Length
10 75 ft / 23 m 2,465 ft / 751 m 89.27° 104.61° Asphalt 0 ft / 0 m 0 ft / 0 m
17 98 ft / 30 m 4,842 ft / 1,476 m 155.91° 171.25° Asphalt 0 ft / 0 m 0 ft / 0 m
28 75 ft / 23 m 2,465 ft / 751 m 269.27° 284.61° Asphalt 0 ft / 0 m 0 ft / 0 m
35 98 ft / 30 m 4,842 ft / 1,476 m 335.91° 351.25° Asphalt 0 ft / 0 m 0 ft / 0 m

Map

Weather


0- 5 10 15 20 25 30 35+ Temperature / ° C

Clouds and Precipitation
Forecast for 2017-12-15 00:00 UTC. Updated 2 hours ago

Ground ~20,000 ft ~40,000 ft Winds

METAR

Not found

TAF

TAF FQVL 141600Z 1418/1518 20012G22KT 9999 SCT015 BKN020 FEW030CB PROB30 TEMPO 1418/1424 5000 -RADZ SCT015 BKN018 BECMG 1500/1502 14010G20KT BECMG 1506/1508 17015KT BKN020 BECMG 1512/1514 11010KT TN21/1503ZTX26/1513Z

Frequencies

Tower 118.30 MHz TWR
Warning: Do not use this data for real-world aviation or navigation. No guarantee of current accuracy is given.